createdAt,value
2023-04-07T00:02:26.603Z,85.30
2023-04-07T00:04:54.453Z,85.39
2023-04-07T00:07:22.229Z,85.56
2023-04-07T00:09:50.046Z,85.65
2023-04-07T00:12:17.810Z,85.73
2023-04-07T00:14:45.510Z,86.08
2023-04-07T00:17:13.180Z,86.03
2023-04-07T00:19:40.854Z,86.00
2023-04-07T00:22:08.528Z,86.13
2023-04-07T00:24:36.208Z,86.32
2023-04-07T00:27:04.164Z,86.09
2023-04-07T00:29:31.941Z,86.05
2023-04-07T00:31:59.754Z,85.93
2023-04-07T00:34:27.566Z,85.88
2023-04-07T00:36:55.311Z,85.92
2023-04-07T00:39:23.683Z,85.81
2023-04-07T00:41:51.449Z,85.73
2023-04-07T00:44:19.212Z,85.68
2023-04-07T00:46:48.065Z,85.78
2023-04-07T00:49:16.383Z,86.00
2023-04-07T00:51:44.930Z,86.25
2023-04-07T00:54:12.858Z,86.67
2023-04-07T00:56:41.898Z,86.73
2023-04-07T00:59:11.006Z,86.16
2023-04-07T01:01:59.102Z,86.59
2023-04-07T01:04:35.531Z,86.04
2023-04-07T01:07:11.497Z,86.15
2023-04-07T01:09:46.798Z,85.95
2023-04-07T01:12:14.947Z,85.95
2023-04-07T01:14:47.121Z,86.09
2023-04-07T01:17:32.040Z,86.29
2023-04-07T01:20:02.136Z,86.22
2023-04-07T01:22:42.874Z,86.31
2023-04-07T01:25:23.237Z,86.43
2023-04-07T01:27:51.267Z,86.51
2023-04-07T01:30:19.900Z,86.58
2023-04-07T01:32:51.846Z,86.91
2023-04-07T01:35:20.052Z,87.08
2023-04-07T01:37:48.955Z,87.28
2023-04-07T01:40:17.428Z,87.04
2023-04-07T01:42:46.085Z,87.21
2023-04-07T01:45:14.804Z,87.26
2023-04-07T01:47:43.723Z,87.41
2023-04-07T01:50:12.480Z,87.30
2023-04-07T01:52:40.786Z,87.29
2023-04-07T01:55:09.015Z,87.18
2023-04-07T01:57:40.514Z,87.27
2023-04-07T02:00:14.368Z,87.32
2023-04-07T02:02:49.591Z,87.38
2023-04-07T02:05:19.334Z,87.37
2023-04-07T02:07:47.100Z,87.52
2023-04-07T02:10:16.379Z,87.73
2023-04-07T02:12:46.108Z,87.53
2023-04-07T02:15:16.648Z,87.36
2023-04-07T02:17:47.882Z,87.32
2023-04-07T02:20:16.459Z,87.86
2023-04-07T02:22:44.526Z,87.72
2023-04-07T02:25:25.029Z,87.31
2023-04-07T02:28:01.686Z,87.48
2023-04-07T02:30:29.500Z,87.59
2023-04-07T02:32:57.297Z,87.64
2023-04-07T02:35:25.244Z,87.59
2023-04-07T02:37:53.148Z,87.77
2023-04-07T02:40:20.876Z,87.79
2023-04-07T02:42:48.605Z,87.92
2023-04-07T02:45:16.368Z,87.79
2023-04-07T02:47:44.133Z,88.14
2023-04-07T02:50:11.950Z,87.87
2023-04-07T02:52:39.893Z,87.92
2023-04-07T02:55:11.933Z,87.93
2023-04-07T02:57:49.286Z,87.91
2023-04-07T03:00:43.300Z,88.04
2023-04-07T03:03:25.074Z,87.92
2023-04-07T03:06:16.592Z,88.22
2023-04-07T03:08:57.447Z,89.46
2023-04-07T03:11:25.226Z,89.16
2023-04-07T03:13:53.693Z,88.27
2023-04-07T03:16:32.183Z,88.16
2023-04-07T03:19:04.725Z,87.94
2023-04-07T03:21:34.988Z,88.09
2023-04-07T03:24:03.437Z,88.04
2023-04-07T03:26:31.186Z,88.14
2023-04-07T03:28:59.309Z,88.04
2023-04-07T03:31:27.305Z,88.11
2023-04-07T03:33:55.563Z,88.10
2023-04-07T03:36:23.549Z,87.88
2023-04-07T03:38:51.691Z,87.83
2023-04-07T03:41:19.749Z,88.03
2023-04-07T03:43:48.406Z,88.16
2023-04-07T03:46:16.564Z,88.24
2023-04-07T03:48:45.108Z,87.99
2023-04-07T03:51:13.227Z,87.89
2023-04-07T03:53:41.073Z,88.18
2023-04-07T03:56:18.504Z,88.63
2023-04-07T03:58:48.976Z,88.26
2023-04-07T04:01:22.423Z,88.07
2023-04-07T04:03:51.168Z,88.13
2023-04-07T04:06:27.891Z,88.30
2023-04-07T04:09:01.214Z,88.39
2023-04-07T04:11:31.117Z,88.21
2023-04-07T04:14:01.525Z,88.18
2023-04-07T04:16:29.503Z,88.15
2023-04-07T04:18:59.065Z,88.20
2023-04-07T04:21:29.439Z,88.29
2023-04-07T04:23:57.520Z,88.89
2023-04-07T04:26:25.759Z,89.27
2023-04-07T04:28:55.226Z,88.71
2023-04-07T04:31:23.464Z,88.37
2023-04-07T04:33:51.336Z,88.47
2023-04-07T04:36:19.585Z,89.25
2023-04-07T04:38:47.972Z,89.31
2023-04-07T04:41:20.514Z,89.05
2023-04-07T04:43:49.137Z,88.80
2023-04-07T04:46:19.791Z,88.39
2023-04-07T04:48:49.529Z,88.50
2023-04-07T04:51:18.024Z,88.32
2023-04-07T04:53:47.273Z,88.31
2023-04-07T04:56:15.153Z,88.24
2023-04-07T04:58:46.082Z,88.59
2023-04-07T05:01:19.196Z,88.94
2023-04-07T05:03:53.584Z,88.79
2023-04-07T05:06:28.020Z,88.65
2023-04-07T05:08:57.534Z,88.60
2023-04-07T05:11:27.800Z,88.82
2023-04-07T05:13:56.851Z,88.33
2023-04-07T05:16:24.978Z,88.31
2023-04-07T05:18:53.214Z,88.35
2023-04-07T05:21:21.351Z,88.32
2023-04-07T05:23:49.958Z,88.31
2023-04-07T05:26:18.940Z,88.98
2023-04-07T05:28:47.274Z,89.64
2023-04-07T05:31:19.391Z,89.09
2023-04-07T05:33:48.300Z,88.80
2023-04-07T05:36:16.824Z,88.48
2023-04-07T05:38:44.609Z,88.38
2023-04-07T05:41:15.198Z,88.59
2023-04-07T05:43:42.928Z,88.40
2023-04-07T05:46:11.047Z,88.33
2023-04-07T05:48:46.309Z,88.24
2023-04-07T05:51:14.669Z,88.43
2023-04-07T05:53:42.457Z,88.11
2023-04-07T05:56:10.378Z,88.28
2023-04-07T05:58:43.022Z,88.20
2023-04-07T06:01:10.958Z,88.07
2023-04-07T06:03:38.779Z,87.96
2023-04-07T06:06:16.651Z,88.12
2023-04-07T06:08:46.112Z,88.70
2023-04-07T06:11:14.077Z,88.60
2023-04-07T06:13:41.853Z,89.16
2023-04-07T06:16:09.782Z,89.12
2023-04-07T06:18:38.454Z,88.61
2023-04-07T06:21:10.105Z,88.22
2023-04-07T06:23:37.921Z,87.72
2023-04-07T06:26:10.666Z,87.63
2023-04-07T06:28:38.838Z,87.61
2023-04-07T06:31:06.985Z,87.65
2023-04-07T06:33:35.045Z,87.58
2023-04-07T06:36:02.947Z,87.63
2023-04-07T06:38:30.772Z,87.55
2023-04-07T06:41:01.259Z,87.29
2023-04-07T06:43:29.977Z,87.01
2023-04-07T06:46:02.214Z,87.60
2023-04-07T06:48:30.027Z,87.33
2023-04-07T06:51:01.227Z,87.26
2023-04-07T06:53:29.334Z,87.36
2023-04-07T06:56:12.981Z,87.65
2023-04-07T06:58:40.855Z,86.67
2023-04-07T07:01:08.757Z,86.51
2023-04-07T07:03:36.924Z,86.36
2023-04-07T07:06:04.780Z,86.04
2023-04-07T07:08:32.499Z,86.06
2023-04-07T07:11:00.211Z,86.28
2023-04-07T07:13:28.310Z,86.47
2023-04-07T07:15:56.198Z,86.62
2023-04-07T07:18:24.513Z,86.72
2023-04-07T07:20:52.343Z,86.96
2023-04-07T07:23:20.101Z,86.58
2023-04-07T07:25:48.079Z,86.07
2023-04-07T07:28:15.912Z,86.99
2023-04-07T07:31:04.403Z,87.68
2023-04-07T07:33:42.600Z,87.78
2023-04-07T07:36:10.566Z,88.51
2023-04-07T07:38:38.989Z,88.97
2023-04-07T07:41:07.237Z,87.26
2023-04-07T07:43:35.450Z,87.62
2023-04-07T07:46:03.587Z,87.73
2023-04-07T07:48:31.591Z,88.04
2023-04-07T07:50:59.768Z,86.47
2023-04-07T07:53:27.595Z,86.09
2023-04-07T07:55:55.509Z,85.57
2023-04-07T07:58:23.837Z,85.24
2023-04-07T08:00:51.566Z,85.79
2023-04-07T08:03:19.492Z,86.35
2023-04-07T08:05:48.637Z,85.35
2023-04-07T08:08:16.480Z,86.18
2023-04-07T08:10:44.262Z,86.70
2023-04-07T08:13:12.805Z,86.36
2023-04-07T08:15:40.653Z,87.24
2023-04-07T08:18:08.497Z,86.48
2023-04-07T08:20:36.634Z,86.12
2023-04-07T08:23:06.489Z,85.99
2023-04-07T08:25:34.970Z,85.94
2023-04-07T08:28:02.790Z,85.94
2023-04-07T08:30:30.688Z,85.81
2023-04-07T08:32:58.670Z,86.53
2023-04-07T08:35:26.613Z,86.53
2023-04-07T08:37:54.397Z,86.24
2023-04-07T08:40:22.191Z,86.31
2023-04-07T08:42:50.819Z,86.36
2023-04-07T08:45:18.753Z,85.10
2023-04-07T08:47:46.932Z,84.70
2023-04-07T08:50:17.044Z,84.90
2023-04-07T08:52:47.169Z,85.00
2023-04-07T08:55:17.571Z,85.69
2023-04-07T08:57:45.876Z,86.00
2023-04-07T09:00:14.491Z,85.47
2023-04-07T09:02:43.965Z,86.26
2023-04-07T09:05:19.280Z,85.93
2023-04-07T09:07:47.386Z,86.20
2023-04-07T09:10:16.133Z,87.15
2023-04-07T09:12:43.968Z,86.62
2023-04-07T09:15:12.287Z,88.14
2023-04-07T09:17:40.376Z,87.85
2023-04-07T09:20:08.285Z,86.63
2023-04-07T09:22:36.307Z,86.79
2023-04-07T09:25:18.068Z,88.51
2023-04-07T09:28:00.272Z,87.60
2023-04-07T09:30:29.165Z,87.78
2023-04-07T09:32:57.434Z,87.95
2023-04-07T09:35:25.500Z,87.82
2023-04-07T09:38:09.324Z,88.32
2023-04-07T09:40:37.265Z,86.77
2023-04-07T09:43:05.774Z,87.26
2023-04-07T09:45:35.730Z,87.63
2023-04-07T09:48:18.846Z,88.74
2023-04-07T09:50:46.702Z,87.60
2023-04-07T09:53:14.774Z,86.66
2023-04-07T09:55:42.604Z,86.34
2023-04-07T09:58:13.533Z,86.01
2023-04-07T10:00:41.823Z,85.94
2023-04-07T10:03:09.720Z,86.24
2023-04-07T10:05:38.960Z,86.92
2023-04-07T10:08:06.953Z,88.55
2023-04-07T10:10:35.373Z,88.01
2023-04-07T10:13:05.173Z,89.11
2023-04-07T10:15:36.316Z,86.63
2023-04-07T10:18:08.098Z,86.92
2023-04-07T10:20:39.670Z,88.54
2023-04-07T10:23:13.381Z,90.03
2023-04-07T10:25:51.215Z,88.40
2023-04-07T10:28:20.569Z,87.53
2023-04-07T10:30:54.053Z,86.89
2023-04-07T10:33:42.093Z,88.27
2023-04-07T10:36:10.145Z,89.66
2023-04-07T10:38:38.056Z,89.07
2023-04-07T10:41:24.757Z,87.82
2023-04-07T10:43:52.862Z,88.57
2023-04-07T10:46:20.806Z,88.74
2023-04-07T10:49:18.991Z,88.94
2023-04-07T10:52:16.093Z,87.52
2023-04-07T10:54:47.046Z,86.92
2023-04-07T10:57:15.122Z,86.71
2023-04-07T11:00:02.870Z,86.33
2023-04-07T11:02:31.210Z,87.10
2023-04-07T11:04:59.235Z,87.55
2023-04-07T11:07:48.441Z,88.11
2023-04-07T11:10:16.457Z,89.43
2023-04-07T11:13:00.138Z,87.35
2023-04-07T11:15:27.938Z,86.51
2023-04-07T11:18:13.115Z,86.82
2023-04-07T11:20:43.340Z,87.59
2023-04-07T11:23:12.342Z,87.55
2023-04-07T11:25:42.384Z,86.82
2023-04-07T11:28:10.789Z,87.47
2023-04-07T11:30:39.046Z,87.05
2023-04-07T11:33:07.659Z,86.82
2023-04-07T11:35:35.724Z,86.30
2023-04-07T11:38:03.767Z,87.36
2023-04-07T11:40:32.650Z,89.28
2023-04-07T11:43:00.544Z,88.14
2023-04-07T11:45:28.666Z,89.38
2023-04-07T11:47:56.735Z,88.37
2023-04-07T11:50:40.461Z,88.31
2023-04-07T11:53:08.792Z,90.14
2023-04-07T11:55:36.781Z,89.14
2023-04-07T11:58:07.997Z,87.55
2023-04-07T12:00:35.735Z,87.01
2023-04-07T12:03:10.760Z,88.11
2023-04-07T12:05:42.487Z,89.65
2023-04-07T12:08:10.280Z,89.07
2023-04-07T12:10:38.291Z,90.31
2023-04-07T12:13:06.687Z,90.83
2023-04-07T12:15:34.623Z,91.21
2023-04-07T12:18:02.605Z,92.11
2023-04-07T12:20:30.674Z,90.46
2023-04-07T12:22:58.867Z,89.89
2023-04-07T12:25:27.016Z,89.72
2023-04-07T12:27:54.940Z,88.91
2023-04-07T12:30:22.950Z,90.06
2023-04-07T12:32:50.959Z,88.80
2023-04-07T12:35:18.803Z,87.75
2023-04-07T12:37:47.752Z,86.73
2023-04-07T12:40:17.412Z,88.12
2023-04-07T12:42:45.272Z,87.17
2023-04-07T12:45:12.977Z,88.09
2023-04-07T12:47:40.824Z,88.59
2023-04-07T12:50:08.709Z,88.37
2023-04-07T12:52:36.532Z,90.35
2023-04-07T12:55:04.654Z,91.16
2023-04-07T12:57:32.406Z,91.30
2023-04-07T13:00:00.250Z,90.81
2023-04-07T13:02:28.361Z,88.09
2023-04-07T13:04:56.354Z,88.56
2023-04-07T13:07:24.090Z,89.66
2023-04-07T13:09:52.098Z,87.49
2023-04-07T13:12:20.767Z,87.74
2023-04-07T13:14:59.211Z,88.71
2023-04-07T13:17:28.331Z,89.20
2023-04-07T13:19:56.471Z,87.62
2023-04-07T13:22:26.140Z,87.13
2023-04-07T13:24:53.944Z,87.47
2023-04-07T13:27:21.827Z,87.84
2023-04-07T13:29:49.627Z,87.82
2023-04-07T13:32:17.511Z,87.15
2023-04-07T13:34:45.428Z,87.48
2023-04-07T13:37:13.444Z,88.25
2023-04-07T13:39:41.327Z,88.68
2023-04-07T13:42:10.847Z,88.74
2023-04-07T13:44:39.927Z,89.56
2023-04-07T13:47:07.873Z,89.66
2023-04-07T13:49:36.029Z,89.20
2023-04-07T13:52:03.818Z,87.76
2023-04-07T13:54:31.614Z,88.82
2023-04-07T13:56:59.476Z,88.72
2023-04-07T13:59:27.216Z,88.88
2023-04-07T14:01:55.336Z,89.28
2023-04-07T14:04:23.339Z,88.43
2023-04-07T14:06:51.085Z,87.56
2023-04-07T14:09:18.938Z,87.91
2023-04-07T14:11:46.674Z,88.10
2023-04-07T14:14:14.504Z,88.63
2023-04-07T14:16:42.323Z,90.18
2023-04-07T14:19:10.029Z,90.62
2023-04-07T14:21:40.262Z,91.26
2023-04-07T14:24:08.499Z,92.36
2023-04-07T14:26:36.201Z,92.25
2023-04-07T14:29:03.907Z,90.73
2023-04-07T14:31:32.049Z,90.34
2023-04-07T14:34:00.170Z,90.16
2023-04-07T14:36:28.036Z,88.99
2023-04-07T14:38:55.765Z,89.35
2023-04-07T14:41:24.272Z,90.15
2023-04-07T14:43:53.663Z,90.84
2023-04-07T14:46:25.416Z,90.36
2023-04-07T14:48:53.217Z,88.85
2023-04-07T14:51:22.230Z,88.72
2023-04-07T14:53:50.240Z,88.79
2023-04-07T14:56:18.247Z,89.08
2023-04-07T14:58:45.974Z,90.22
2023-04-07T15:01:13.938Z,90.72
2023-04-07T15:03:41.769Z,89.99
2023-04-07T15:06:27.859Z,88.47
2023-04-07T15:08:55.716Z,87.75
2023-04-07T15:11:28.817Z,87.82
2023-04-07T15:13:56.632Z,88.33
2023-04-07T15:16:24.524Z,88.91
2023-04-07T15:18:52.493Z,88.51
2023-04-07T15:21:20.445Z,88.17
2023-04-07T15:23:48.781Z,88.82
2023-04-07T15:26:17.396Z,89.02
2023-04-07T15:28:45.142Z,89.28
2023-04-07T15:31:13.638Z,89.74
2023-04-07T15:33:41.732Z,90.34
2023-04-07T15:36:09.615Z,90.99
2023-04-07T15:38:37.518Z,91.45
2023-04-07T15:41:05.553Z,91.91
2023-04-07T15:43:33.349Z,92.25
2023-04-07T15:46:01.101Z,92.34
2023-04-07T15:48:32.299Z,92.03
2023-04-07T15:51:00.111Z,91.69
2023-04-07T15:53:27.886Z,91.48
2023-04-07T15:55:55.823Z,91.60
2023-04-07T15:58:23.564Z,90.21
2023-04-07T16:00:51.588Z,89.88
2023-04-07T16:03:19.781Z,89.16
2023-04-07T16:05:47.862Z,88.20
2023-04-07T16:08:15.646Z,89.17
2023-04-07T16:10:43.540Z,88.64
2023-04-07T16:13:11.403Z,88.35
2023-04-07T16:15:41.081Z,87.94
2023-04-07T16:18:10.266Z,87.87
2023-04-07T16:20:38.527Z,88.81
2023-04-07T16:23:06.416Z,89.86
2023-04-07T16:25:34.164Z,91.07
2023-04-07T16:28:02.334Z,90.82
2023-04-07T16:30:30.285Z,89.17
2023-04-07T16:32:58.311Z,89.99
2023-04-07T16:35:26.621Z,89.27
2023-04-07T16:37:54.669Z,89.37
2023-04-07T16:40:22.581Z,89.99
2023-04-07T16:42:50.565Z,90.48
2023-04-07T16:45:18.396Z,89.22
2023-04-07T16:47:49.231Z,88.62
2023-04-07T16:50:17.226Z,88.77
2023-04-07T16:52:45.029Z,89.04
2023-04-07T16:55:12.773Z,89.38
2023-04-07T16:57:40.886Z,88.99
2023-04-07T17:00:09.043Z,89.95
2023-04-07T17:02:37.168Z,90.86
2023-04-07T17:05:05.529Z,90.33
2023-04-07T17:07:33.293Z,89.95
2023-04-07T17:10:01.231Z,89.91
2023-04-07T17:12:29.142Z,90.58
2023-04-07T17:14:57.236Z,91.09
2023-04-07T17:17:25.231Z,91.45
2023-04-07T17:19:52.983Z,91.58
2023-04-07T17:22:20.814Z,91.66
2023-04-07T17:24:48.609Z,91.73
2023-04-07T17:27:16.395Z,91.88
2023-04-07T17:29:46.916Z,92.14
2023-04-07T17:32:14.845Z,92.50
2023-04-07T17:34:42.722Z,92.66
2023-04-07T17:37:10.696Z,92.82
2023-04-07T17:39:39.592Z,92.98
2023-04-07T17:42:07.584Z,93.12
2023-04-07T17:44:35.680Z,93.08
2023-04-07T17:47:03.699Z,93.03
2023-04-07T17:49:31.731Z,93.19
2023-04-07T17:51:59.713Z,93.27
2023-04-07T17:54:27.631Z,93.08
2023-04-07T17:56:55.826Z,93.14
2023-04-07T17:59:23.772Z,93.23
2023-04-07T18:01:51.838Z,93.25
2023-04-07T18:04:20.564Z,93.36
2023-04-07T18:06:48.792Z,93.40
2023-04-07T18:09:16.715Z,93.47
2023-04-07T18:11:45.107Z,93.54
2023-04-07T18:14:16.125Z,93.55
2023-04-07T18:16:53.042Z,93.61
2023-04-07T18:19:21.380Z,93.79
2023-04-07T18:21:52.328Z,93.85
2023-04-07T18:24:24.279Z,93.92
2023-04-07T18:26:52.419Z,93.99
2023-04-07T18:29:20.228Z,94.03
2023-04-07T18:31:48.651Z,94.02
2023-04-07T18:34:16.538Z,93.91
2023-04-07T18:36:44.681Z,93.87
2023-04-07T18:39:13.049Z,93.81
2023-04-07T18:41:41.847Z,93.71
2023-04-07T18:44:10.575Z,93.80
2023-04-07T18:46:38.629Z,93.91
2023-04-07T18:49:06.868Z,93.98
2023-04-07T18:51:35.285Z,93.96
2023-04-07T18:54:03.532Z,93.90
2023-04-07T18:56:32.637Z,93.80
2023-04-07T18:59:00.543Z,93.62
2023-04-07T19:01:28.842Z,93.60
2023-04-07T19:03:59.318Z,93.68
2023-04-07T19:06:35.340Z,93.55
2023-04-07T19:09:03.874Z,93.36
2023-04-07T19:11:31.778Z,93.38
2023-04-07T19:13:59.698Z,93.32
2023-04-07T19:16:27.609Z,93.37
2023-04-07T19:18:55.689Z,93.32
2023-04-07T19:21:23.913Z,92.99
2023-04-07T19:24:09.295Z,92.55
2023-04-07T19:26:40.458Z,92.20
2023-04-07T19:29:16.381Z,92.18
2023-04-07T19:31:44.331Z,92.21
2023-04-07T19:34:12.212Z,92.29
2023-04-07T19:36:40.163Z,92.56
2023-04-07T19:39:08.440Z,92.94
2023-04-07T19:41:36.565Z,93.03
2023-04-07T19:44:04.452Z,93.49
2023-04-07T19:46:32.474Z,93.98
2023-04-07T19:49:00.268Z,94.58
2023-04-07T19:51:28.077Z,94.98
2023-04-07T19:53:56.048Z,95.13
2023-04-07T19:56:23.883Z,95.22
2023-04-07T19:58:51.857Z,95.36
2023-04-07T20:01:19.926Z,95.28
2023-04-07T20:03:47.761Z,95.22
2023-04-07T20:06:15.612Z,95.16
2023-04-07T20:08:43.634Z,93.48
2023-04-07T20:11:11.798Z,91.44
2023-04-07T20:13:40.297Z,91.69
2023-04-07T20:16:08.732Z,92.20
2023-04-07T20:18:36.692Z,91.87
2023-04-07T20:21:04.939Z,92.03
2023-04-07T20:23:33.476Z,92.23
2023-04-07T20:26:01.509Z,93.40
2023-04-07T20:28:29.373Z,93.96
2023-04-07T20:30:57.278Z,94.23
2023-04-07T20:33:25.322Z,94.77
2023-04-07T20:35:53.479Z,95.10
2023-04-07T20:38:21.720Z,95.17
2023-04-07T20:40:49.462Z,95.34
2023-04-07T20:43:17.485Z,95.26
2023-04-07T20:45:45.551Z,95.16
2023-04-07T20:48:13.370Z,94.99
2023-04-07T20:50:41.302Z,94.04
2023-04-07T20:53:09.126Z,91.76
2023-04-07T20:55:36.948Z,90.66
2023-04-07T20:58:04.720Z,90.66
2023-04-07T21:00:32.545Z,90.28
2023-04-07T21:03:00.465Z,90.00
2023-04-07T21:05:28.445Z,90.21
2023-04-07T21:07:56.328Z,89.96
2023-04-07T21:10:24.105Z,90.27
2023-04-07T21:12:52.015Z,90.32
2023-04-07T21:15:20.019Z,90.06
2023-04-07T21:17:47.993Z,90.01
2023-04-07T21:20:16.202Z,90.07
2023-04-07T21:22:46.979Z,90.06
2023-04-07T21:25:15.063Z,90.07
2023-04-07T21:27:43.029Z,90.08
2023-04-07T21:30:11.092Z,90.04
2023-04-07T21:32:38.836Z,90.02
2023-04-07T21:35:06.711Z,90.14
2023-04-07T21:37:34.502Z,90.14
2023-04-07T21:40:02.251Z,90.13
2023-04-07T21:42:30.259Z,90.47
2023-04-07T21:44:58.025Z,90.27
2023-04-07T21:47:25.887Z,90.09
2023-04-07T21:49:53.604Z,90.11
2023-04-07T21:52:21.526Z,90.08
2023-04-07T21:54:52.364Z,90.02
2023-04-07T21:57:20.237Z,90.00
2023-04-07T21:59:48.387Z,90.03
2023-04-07T22:02:16.212Z,89.99
2023-04-07T22:04:44.290Z,89.98
2023-04-07T22:07:12.271Z,89.98
2023-04-07T22:09:40.088Z,89.97
2023-04-07T22:12:07.989Z,90.00
2023-04-07T22:14:35.715Z,90.02
2023-04-07T22:17:03.471Z,90.05
2023-04-07T22:19:31.247Z,90.01
2023-04-07T22:21:59.095Z,90.02
2023-04-07T22:24:27.040Z,90.03
2023-04-07T22:26:54.886Z,90.05
2023-04-07T22:29:22.615Z,90.11
2023-04-07T22:31:50.341Z,90.16
2023-04-07T22:34:18.408Z,90.26
2023-04-07T22:36:46.184Z,90.24
2023-04-07T22:39:13.894Z,90.22
2023-04-07T22:41:41.582Z,90.25
2023-04-07T22:44:17.364Z,90.25
2023-04-07T22:46:48.300Z,90.30
2023-04-07T22:49:16.050Z,90.28
2023-04-07T22:51:43.815Z,90.28
2023-04-07T22:54:11.778Z,90.31
2023-04-07T22:56:39.501Z,90.35
2023-04-07T22:59:07.433Z,90.34
2023-04-07T23:01:35.128Z,90.32
2023-04-07T23:04:08.835Z,90.38
2023-04-07T23:06:36.896Z,90.35
2023-04-07T23:09:15.835Z,90.35
2023-04-07T23:11:46.191Z,90.35
2023-04-07T23:14:14.283Z,90.42
2023-04-07T23:16:42.043Z,90.48
2023-04-07T23:19:09.829Z,90.46
2023-04-07T23:21:57.744Z,90.81
2023-04-07T23:24:25.661Z,90.79
2023-04-07T23:26:53.627Z,90.84
2023-04-07T23:29:21.406Z,91.66
2023-04-07T23:31:49.449Z,92.67
2023-04-07T23:34:17.205Z,92.04
2023-04-07T23:36:45.250Z,91.27
2023-04-07T23:39:13.316Z,90.93
2023-04-07T23:41:41.039Z,90.55
2023-04-07T23:44:08.889Z,90.47
2023-04-07T23:46:36.853Z,90.68
2023-04-07T23:49:07.656Z,90.84
2023-04-07T23:51:35.617Z,90.69
2023-04-07T23:54:03.477Z,90.78
2023-04-07T23:56:32.073Z,91.12
2023-04-07T23:59:00.001Z,91.06
